Artesian, SD

3:42 AM CST on November 15, 2019 (GMT -0600)
NE of Letcher | | Change Station
Active Advisory: Flood Warning

Elev 1302 ft 43.91 °N, 98.11 °W | Updated 12 minutes ago

Clear
Clear
28.3 °F
Feels Like 28 °F
N
1
Wind Variable Wind from ESE
Gusts 0.0 mph

Today
High -- | Low -- °F
--% Chance of Precip.
Yesterday
High -- | Low -- °F
Precip. -- in
Pressure 30.25 in
Visibility 10.0 miles
Clouds Clear
Windchill 28 °F
Dew Point 26 °F
Humidity 91%
Rainfall 0.00 in
Snow Depth Not available.
7:26 AM 5:05 PM
Waning Gibbous, 92% visible
METAR KMHE 150853Z AUTO 15005KT 10SM CLR M02/M04 A3022 RMK AO2 SLP244 T10221039 58006
Pressure 30.25 in
Visibility 10.0 miles
Clouds Clear
Windchill 28 °F
Dew Point 26 °F
Humidity 91%
Rainfall 0.00 in
Snow Depth Not available.
7:26 AM 5:05 PM
Waning Gibbous, 92% visible
METAR KMHE 150853Z AUTO 15005KT 10SM CLR M02/M04 A3022 RMK AO2 SLP244 T10221039 58006

Get Your Daily Forecast Email!

Thanks for signing up!

Be on the lookout for a verification email in your inbox.

You'll start receiving severe weather alerts in your inbox..

×

10-Day Weather Forecast

Almanac

Astronomy

Nov. 15, 2019 Rise Set
Actual Time
Civil Twilight
Nautical Twilight
Astronomical Twilight
Moon
Length of Visible Light
Length of Day
Tomorrow will be .
, % of the Moon is Illuminated

Today's Extremes

State Highs State Lows

Community

WunderPhotos

Category 6

Welcome to Category 6. This is the collective home for Weather Underground's featured writeups by Dr. Jeff Masters (right), Bob Henson (left), Chris Burt, and other regular contributors.

Nearby

Air Quality

  Air Quality AQ Index Pollutant
Not available.

Snow Depth

Station Depth Elevation

Earthquake Activity

City Distance Mag. Time & Date
Minimum magnitude displayed is 2.5.

Coastal Water Temperatures

Place Temperature

Stations

Nearby Weather Stations

Station Location Temp. Windchill Dew Point Humidity Wind Precip. Elev Updated Type
                   

Watches & Warnings

Flood Warning
Issued: 9:35 AM CST Nov. 14, 2019 – National Weather Service

The Flood Warning continues for
the James River near Forestburg.
* Until further notice.
* At 08am Thursday the stage was 12.29 feet.
* Minor flooding is occurring and minor flooding is forecast.
* Flood stage is 12.00 feet.
* Forecast... the river will continue rising to near 12.9 feet by
Thursday November 21. Additional rises may be possible thereafter.
* At stages near 12.0 feet... flooding begins over the left bank and a
few County or township roads begin to flood.


Lat... Lon 4420 9822 4420 9810 4402 9802 4393 9798
          4393 9812 4409 9816